createdAt,value
2018-04-22T00:01:52.488Z,89.10
2018-04-22T00:04:19.241Z,89.30
2018-04-22T00:06:46.757Z,89.40
2018-04-22T00:09:13.531Z,89.30
2018-04-22T00:11:40.285Z,88.60
2018-04-22T00:14:07.724Z,87.40
2018-04-22T00:16:34.425Z,87.40
2018-04-22T00:19:01.108Z,87.90
2018-04-22T00:21:27.821Z,87.80
2018-04-22T00:23:54.519Z,88.60
2018-04-22T00:26:21.202Z,89.00
2018-04-22T00:28:47.892Z,88.50
2018-04-22T00:31:14.606Z,88.30
2018-04-22T00:33:42.048Z,88.30
2018-04-22T00:36:08.735Z,88.00
2018-04-22T00:38:35.435Z,88.00
2018-04-22T00:41:02.185Z,88.00
2018-04-22T00:43:29.719Z,87.30
2018-04-22T00:45:56.479Z,87.40
2018-04-22T00:48:23.944Z,87.60
2018-04-22T00:50:51.473Z,88.10
2018-04-22T00:53:18.278Z,88.10
2018-04-22T00:55:45.041Z,88.40
2018-04-22T00:58:11.828Z,89.00
2018-04-22T01:00:38.619Z,89.10
2018-04-22T01:03:05.424Z,88.90
2018-04-22T01:05:32.194Z,88.90
2018-04-22T01:07:58.964Z,89.30
2018-04-22T01:10:25.724Z,89.90
2018-04-22T01:12:53.212Z,89.80
2018-04-22T01:15:19.950Z,89.70
2018-04-22T01:17:46.688Z,89.70
2018-04-22T01:20:14.939Z,89.80
2018-04-22T01:22:42.409Z,90.50
2018-04-22T01:25:09.183Z,91.20
2018-04-22T01:27:35.928Z,91.00
2018-04-22T01:30:02.760Z,90.70
2018-04-22T01:32:29.502Z,90.80
2018-04-22T01:34:56.278Z,91.00
2018-04-22T01:37:23.075Z,90.70
2018-04-22T01:39:49.818Z,90.10
2018-04-22T01:42:17.262Z,89.70
2018-04-22T01:44:43.942Z,89.60
2018-04-22T01:47:10.624Z,89.50
2018-04-22T01:49:37.332Z,90.00
2018-04-22T01:52:04.039Z,90.60
2018-04-22T01:54:30.791Z,90.70
2018-04-22T01:56:57.492Z,90.60
2018-04-22T01:59:24.188Z,90.50
2018-04-22T02:01:50.871Z,90.70
2018-04-22T02:04:17.560Z,90.70
2018-04-22T02:06:44.275Z,91.10
2018-04-22T02:09:11.031Z,91.00
2018-04-22T02:11:37.800Z,90.60
2018-04-22T02:14:05.260Z,91.40
2018-04-22T02:16:32.739Z,91.30
2018-04-22T02:18:59.452Z,91.30
2018-04-22T02:21:26.912Z,91.60
2018-04-22T02:23:54.413Z,91.70
2018-04-22T02:26:21.161Z,91.70
2018-04-22T02:28:47.881Z,92.80
2018-04-22T02:31:14.636Z,94.10
2018-04-22T02:33:41.355Z,94.70
2018-04-22T02:36:08.095Z,95.20
2018-04-22T02:38:34.852Z,96.40
2018-04-22T02:41:01.643Z,96.80
2018-04-22T02:43:29.125Z,96.60
2018-04-22T02:45:56.027Z,96.60
2018-04-22T02:48:22.752Z,96.20
2018-04-22T02:50:49.497Z,95.00
2018-04-22T02:53:16.226Z,94.40
2018-04-22T02:55:42.953Z,94.50
2018-04-22T02:58:09.729Z,94.10
2018-04-22T03:00:37.215Z,93.70
2018-04-22T03:03:03.963Z,93.70
2018-04-22T03:05:30.675Z,93.60
2018-04-22T03:07:58.150Z,92.60
2018-04-22T03:10:24.883Z,92.50
2018-04-22T03:12:51.620Z,92.20
2018-04-22T03:15:18.335Z,92.50
2018-04-22T03:17:45.096Z,92.60
2018-04-22T03:20:11.815Z,93.20
2018-04-22T03:22:39.292Z,94.90
2018-04-22T03:25:06.740Z,96.00
2018-04-22T03:27:34.191Z,95.50
2018-04-22T03:30:01.644Z,93.90
2018-04-22T03:32:29.115Z,93.00
2018-04-22T03:34:55.838Z,93.00
2018-04-22T03:37:22.581Z,92.90
2018-04-22T03:39:50.075Z,94.00
2018-04-22T03:42:16.780Z,94.00
2018-04-22T03:44:44.256Z,96.00
2018-04-22T03:47:10.976Z,96.00
2018-04-22T03:49:38.439Z,94.00
2018-04-22T03:52:05.938Z,93.60
2018-04-22T03:54:32.654Z,93.60
2018-04-22T03:56:59.376Z,93.00
2018-04-22T03:59:26.824Z,92.50
2018-04-22T04:01:54.263Z,93.10
2018-04-22T04:04:20.984Z,93.10
2018-04-22T04:06:47.724Z,92.90
2018-04-22T04:09:14.464Z,92.40
2018-04-22T04:11:41.216Z,91.80
2018-04-22T04:14:07.991Z,92.80
2018-04-22T04:16:35.472Z,93.70
2018-04-22T04:19:20.362Z,93.70
2018-04-22T04:22:05.356Z,93.20
2018-04-22T04:24:56.163Z,93.10
2018-04-22T04:30:23.293Z,93.20
2018-04-22T04:32:50.043Z,93.70
2018-04-22T04:35:16.939Z,93.90
2018-04-22T04:37:44.956Z,94.00
2018-04-22T04:40:11.678Z,94.00
2018-04-22T04:42:38.375Z,93.90
2018-04-22T04:45:05.878Z,93.70
2018-04-22T04:47:32.579Z,93.50
2018-04-22T04:50:00.029Z,93.70
2018-04-22T04:52:27.484Z,93.70
2018-04-22T04:54:54.986Z,91.70
2018-04-22T04:57:21.683Z,91.60
2018-04-22T04:59:49.158Z,90.30
2018-04-22T05:02:15.871Z,90.20
2018-04-22T05:04:43.330Z,87.10
2018-04-22T05:07:10.796Z,87.10
2018-04-22T05:09:38.250Z,86.40
2018-04-22T05:12:05.666Z,87.10
2018-04-22T05:14:32.423Z,86.40
2018-04-22T05:16:59.841Z,84.20
2018-04-22T05:19:26.506Z,84.10
2018-04-22T05:21:53.183Z,84.80
2018-04-22T05:24:19.875Z,84.50
2018-04-22T05:26:46.556Z,83.10
2018-04-22T05:29:13.971Z,83.00
2018-04-22T05:31:40.646Z,83.60
2018-04-22T05:34:07.306Z,82.20
2018-04-22T05:36:34.005Z,80.10
2018-04-22T05:39:00.704Z,78.60
2018-04-22T05:41:27.363Z,76.80
2018-04-22T05:43:54.019Z,75.20
2018-04-22T05:46:20.712Z,74.70
2018-04-22T05:48:47.395Z,76.50
2018-04-22T05:51:14.066Z,78.10
2018-04-22T05:53:40.730Z,77.70
2018-04-22T05:56:07.449Z,78.20
2018-04-22T05:58:34.159Z,77.60
2018-04-22T06:01:01.619Z,75.30
2018-04-22T06:03:29.066Z,75.00
2018-04-22T06:05:56.491Z,74.60
2018-04-22T06:08:23.171Z,74.60
2018-04-22T06:10:50.646Z,74.50
2018-04-22T06:13:17.361Z,74.50
2018-04-22T06:15:44.899Z,73.40
2018-04-22T06:18:11.631Z,73.30
2018-04-22T06:20:38.369Z,73.30
2018-04-22T06:23:05.853Z,72.20
2018-04-22T06:25:33.326Z,72.50
2018-04-22T06:28:00.026Z,72.50
2018-04-22T06:30:26.707Z,72.30
2018-04-22T06:32:53.371Z,74.10
2018-04-22T06:35:20.061Z,72.50
2018-04-22T06:37:46.779Z,72.10
2018-04-22T06:40:13.486Z,72.40
2018-04-22T06:42:40.164Z,72.30
2018-04-22T06:45:06.827Z,71.00
2018-04-22T06:47:34.239Z,68.90
2018-04-22T06:50:00.932Z,69.00
2018-04-22T06:52:27.616Z,68.10
2018-04-22T06:54:54.291Z,68.50
2018-04-22T06:57:20.997Z,68.10
2018-04-22T06:59:47.679Z,67.80
2018-04-22T07:02:14.351Z,68.60
2018-04-22T07:04:41.024Z,68.50
2018-04-22T07:07:07.696Z,68.70
2018-04-22T07:09:34.383Z,68.00
2018-04-22T07:12:01.084Z,67.60
2018-04-22T07:14:27.781Z,67.60
2018-04-22T07:16:54.483Z,66.10
2018-04-22T07:19:21.198Z,66.40
2018-04-22T07:21:47.929Z,66.60
2018-04-22T07:24:14.637Z,65.00
2018-04-22T07:26:41.306Z,64.20
2018-04-22T07:29:07.984Z,66.10
2018-04-22T07:31:34.724Z,66.50
2018-04-22T07:34:01.428Z,65.50
2018-04-22T07:36:28.116Z,64.80
2018-04-22T07:38:55.088Z,65.00
2018-04-22T07:41:22.624Z,64.80
2018-04-22T07:43:49.383Z,64.80
2018-04-22T07:46:16.108Z,63.60
2018-04-22T07:48:42.938Z,63.90
2018-04-22T07:51:09.698Z,62.60
2018-04-22T07:53:37.195Z,60.80
2018-04-22T07:56:03.966Z,60.00
2018-04-22T07:58:30.711Z,58.50
2018-04-22T08:00:57.498Z,59.20
2018-04-22T08:03:25.131Z,56.80
2018-04-22T08:05:51.891Z,57.10
2018-04-22T08:08:18.619Z,57.00
2018-04-22T08:10:47.986Z,56.70
2018-04-22T08:13:14.776Z,56.70
2018-04-22T08:15:41.526Z,55.00
2018-04-22T08:18:08.263Z,54.70
2018-04-22T08:20:34.963Z,54.10
2018-04-22T08:23:01.659Z,52.50
2018-04-22T08:25:28.414Z,51.50
2018-04-22T08:27:55.132Z,50.20
2018-04-22T08:30:21.839Z,51.10
2018-04-22T08:32:49.266Z,49.80
2018-04-22T08:35:15.945Z,49.90
2018-04-22T08:37:42.659Z,51.50
2018-04-22T08:40:09.372Z,49.10
2018-04-22T08:42:36.084Z,49.90
2018-04-22T08:45:03.536Z,49.80
2018-04-22T08:47:30.218Z,49.80
2018-04-22T08:49:56.904Z,48.50
2018-04-22T08:52:23.571Z,48.40
2018-04-22T08:54:50.237Z,47.60
2018-04-22T08:57:16.911Z,48.60
2018-04-22T08:59:43.619Z,45.90
2018-04-22T09:02:10.304Z,48.50
2018-04-22T09:04:36.976Z,47.10
2018-04-22T09:07:03.694Z,45.10
2018-04-22T09:09:30.374Z,45.20
2018-04-22T09:11:57.102Z,44.80
2018-04-22T09:14:23.771Z,43.10
2018-04-22T09:16:51.217Z,44.50
2018-04-22T09:19:18.637Z,44.30
2018-04-22T09:21:45.329Z,44.20
2018-04-22T09:24:12.751Z,43.90
2018-04-22T09:26:39.476Z,43.90
2018-04-22T09:29:06.176Z,42.90
2018-04-22T09:31:32.890Z,43.60
2018-04-22T09:34:00.303Z,42.40
2018-04-22T09:36:27.008Z,42.30
2018-04-22T09:38:54.423Z,42.10
2018-04-22T09:41:21.170Z,42.10
2018-04-22T09:43:48.611Z,42.40
2018-04-22T09:46:15.350Z,42.40
2018-04-22T09:48:42.055Z,40.40
2018-04-22T09:51:08.818Z,41.40
2018-04-22T09:53:35.562Z,41.00
2018-04-22T09:56:02.281Z,39.70
2018-04-22T09:58:28.948Z,37.90
2018-04-22T10:01:00.556Z,39.00
2018-04-22T10:03:31.136Z,37.10
2018-04-22T10:06:01.699Z,36.90
2018-04-22T10:08:28.379Z,36.80
2018-04-22T10:10:55.089Z,36.30
2018-04-22T10:13:21.776Z,36.00
2018-04-22T10:15:48.438Z,37.20
2018-04-22T10:18:15.923Z,37.50
2018-04-22T10:20:42.615Z,37.40
2018-04-22T10:23:09.288Z,36.40
2018-04-22T10:25:35.968Z,36.90
2018-04-22T10:28:02.656Z,36.30
2018-04-22T10:30:29.416Z,34.00
2018-04-22T10:32:56.156Z,35.30
2018-04-22T10:35:22.916Z,35.10
2018-04-22T10:37:49.671Z,33.80
2018-04-22T10:40:16.436Z,32.40
2018-04-22T10:42:44.011Z,36.40
2018-04-22T10:45:10.768Z,36.30
2018-04-22T10:47:37.540Z,34.30
2018-04-22T10:50:04.311Z,35.30
2018-04-22T10:52:31.818Z,34.20
2018-04-22T10:54:58.660Z,34.10
2018-04-22T10:57:25.445Z,35.10
2018-04-22T10:59:52.277Z,33.30
2018-04-22T11:02:19.116Z,33.10
2018-04-22T11:04:45.816Z,34.00
2018-04-22T11:07:12.514Z,32.80
2018-04-22T11:09:39.270Z,31.10
2018-04-22T11:12:06.688Z,32.50
2018-04-22T11:14:33.383Z,32.50
2018-04-22T11:17:00.071Z,33.40
2018-04-22T11:19:26.738Z,32.00
2018-04-22T11:21:54.195Z,36.00
2018-04-22T11:24:21.633Z,35.50
2018-04-22T11:26:48.320Z,35.30
2018-04-22T11:29:15.004Z,34.50
2018-04-22T11:31:41.750Z,33.80
2018-04-22T11:34:08.428Z,32.90
2018-04-22T11:36:35.108Z,33.20
2018-04-22T11:39:01.798Z,36.70
2018-04-22T11:41:28.519Z,35.80
2018-04-22T11:43:56.000Z,32.90
2018-04-22T11:46:22.803Z,32.80
2018-04-22T11:48:50.303Z,31.80
2018-04-22T11:51:17.804Z,31.60
2018-04-22T11:53:44.491Z,31.60
2018-04-22T11:56:11.216Z,32.60
2018-04-22T11:58:37.951Z,34.50
2018-04-22T12:01:05.383Z,36.30
2018-04-22T12:03:32.103Z,36.30
2018-04-22T12:05:58.783Z,38.30
2018-04-22T12:08:26.216Z,38.50
2018-04-22T12:10:52.970Z,38.50
2018-04-22T12:13:20.432Z,36.30
2018-04-22T12:15:47.856Z,34.50
2018-04-22T12:18:14.551Z,34.50
2018-04-22T12:20:41.285Z,34.60
2018-04-22T12:23:08.711Z,33.00
2018-04-22T12:25:36.139Z,33.80
2018-04-22T12:28:02.854Z,33.80
2018-04-22T12:30:29.632Z,33.60
2018-04-22T12:32:56.303Z,32.40
2018-04-22T12:35:23.738Z,35.80
2018-04-22T12:37:50.512Z,35.70
2018-04-22T12:40:17.944Z,38.70
2018-04-22T12:42:46.420Z,37.80
2018-04-22T12:45:13.944Z,38.20
2018-04-22T12:47:40.726Z,38.20
2018-04-22T12:50:08.299Z,33.50
2018-04-22T12:52:35.103Z,33.40
2018-04-22T12:55:01.786Z,31.80
2018-04-22T12:57:29.244Z,31.90
2018-04-22T12:59:55.908Z,31.30
2018-04-22T13:02:22.631Z,33.20
2018-04-22T13:04:49.376Z,30.20
2018-04-22T13:07:16.116Z,31.00
2018-04-22T13:09:42.811Z,30.80
2018-04-22T13:12:10.288Z,32.40
2018-04-22T13:14:36.989Z,32.40
2018-04-22T13:17:03.728Z,34.30
2018-04-22T13:19:30.437Z,34.00
2018-04-22T13:21:57.103Z,34.40
2018-04-22T13:24:23.784Z,33.80
2018-04-22T13:26:50.459Z,33.40
2018-04-22T13:29:17.130Z,32.60
2018-04-22T13:31:43.873Z,31.30
2018-04-22T13:34:10.526Z,29.90
2018-04-22T13:36:37.976Z,28.50
2018-04-22T13:39:05.511Z,29.60
2018-04-22T13:41:32.223Z,29.60
2018-04-22T13:43:58.903Z,29.70
2018-04-22T13:46:25.609Z,29.90
2018-04-22T13:48:52.326Z,29.90
2018-04-22T13:51:19.035Z,30.90
2018-04-22T13:53:46.456Z,31.30
2018-04-22T13:56:13.921Z,29.60
2018-04-22T13:58:40.596Z,29.00
2018-04-22T14:01:07.308Z,27.40
2018-04-22T14:03:33.998Z,27.10
2018-04-22T14:06:00.743Z,26.40
2018-04-22T14:08:27.431Z,26.70
2018-04-22T14:10:54.856Z,27.20
2018-04-22T14:13:21.546Z,27.20
2018-04-22T14:15:48.267Z,26.20
2018-04-22T14:18:15.687Z,25.30
2018-04-22T14:20:42.362Z,25.20
2018-04-22T14:23:09.072Z,25.10
2018-04-22T14:25:35.754Z,25.30
2018-04-22T14:28:02.466Z,25.90
2018-04-22T14:30:29.134Z,25.20
2018-04-22T14:32:55.804Z,24.90
2018-04-22T14:35:22.472Z,24.20
2018-04-22T14:37:49.146Z,24.00
2018-04-22T14:40:15.864Z,23.60
2018-04-22T14:42:43.298Z,23.20
2018-04-22T14:45:28.377Z,23.10
2018-04-22T14:47:55.772Z,23.40
2018-04-22T14:50:22.535Z,23.70
2018-04-22T14:52:49.206Z,24.40
2018-04-22T14:55:15.904Z,23.80
2018-04-22T14:57:42.623Z,24.40
2018-04-22T15:00:10.119Z,24.70
2018-04-22T15:02:36.999Z,24.70
2018-04-22T15:05:04.472Z,24.00
2018-04-22T15:07:31.152Z,24.00
2018-04-22T15:09:57.816Z,24.50
2018-04-22T15:12:24.510Z,24.60
2018-04-22T15:14:51.203Z,25.10
2018-04-22T15:17:17.917Z,25.30
2018-04-22T15:19:44.595Z,25.80
2018-04-22T15:22:12.030Z,25.50
2018-04-22T15:24:38.739Z,25.50
2018-04-22T15:27:05.436Z,26.40
2018-04-22T15:29:32.858Z,26.80
2018-04-22T15:31:59.522Z,27.30
2018-04-22T15:34:26.944Z,25.80
2018-04-22T15:36:53.641Z,25.80
2018-04-22T15:39:20.335Z,26.20
2018-04-22T15:41:47.036Z,26.50
2018-04-22T15:44:13.769Z,27.20
2018-04-22T15:46:40.449Z,26.80
2018-04-22T15:49:07.121Z,26.90
2018-04-22T15:51:33.822Z,28.10
2018-04-22T15:54:00.524Z,28.10
2018-04-22T15:56:27.259Z,28.90
2018-04-22T15:58:53.977Z,28.00
2018-04-22T16:01:20.771Z,28.60
2018-04-22T16:03:47.539Z,28.20
2018-04-22T16:06:15.044Z,28.60
2018-04-22T16:08:41.786Z,28.60
2018-04-22T16:11:08.546Z,29.80
2018-04-22T16:13:35.279Z,29.50
2018-04-22T16:16:02.030Z,29.50
2018-04-22T16:18:28.775Z,29.10
2018-04-22T16:20:55.528Z,29.60
2018-04-22T16:23:22.254Z,29.60
2018-04-22T16:25:49.035Z,29.80
2018-04-22T16:28:15.805Z,30.00
2018-04-22T16:30:43.566Z,31.10
2018-04-22T16:33:10.375Z,31.40
2018-04-22T16:35:37.160Z,33.90
2018-04-22T16:38:03.940Z,34.80
2018-04-22T16:40:31.483Z,37.40
2018-04-22T16:42:58.222Z,37.40
2018-04-22T16:45:25.051Z,38.70
2018-04-22T16:47:51.815Z,39.50
2018-04-22T16:50:19.326Z,40.60
2018-04-22T16:52:46.139Z,40.60
2018-04-22T16:55:12.896Z,41.10
2018-04-22T16:57:39.637Z,41.50
2018-04-22T17:00:07.348Z,42.70
2018-04-22T17:02:34.133Z,42.90
2018-04-22T17:05:00.868Z,42.60
2018-04-22T17:07:27.640Z,43.70
2018-04-22T17:09:54.377Z,44.40
2018-04-22T17:12:21.146Z,44.70
2018-04-22T17:14:47.908Z,44.20
2018-04-22T17:17:15.415Z,44.10
2018-04-22T17:19:42.198Z,44.10
2018-04-22T17:22:09.672Z,44.70
2018-04-22T17:24:36.441Z,44.60
2018-04-22T17:27:03.246Z,44.60
2018-04-22T17:29:30.731Z,45.30
2018-04-22T17:31:57.471Z,45.30
2018-04-22T17:34:24.261Z,45.40
2018-04-22T17:36:51.035Z,45.40
2018-04-22T17:39:17.788Z,46.40
2018-04-22T17:41:44.638Z,46.60
2018-04-22T17:44:11.438Z,47.00
2018-04-22T17:46:38.129Z,47.60
2018-04-22T17:49:04.863Z,47.20
2018-04-22T17:51:31.639Z,47.40
2018-04-22T17:53:58.422Z,47.20
2018-04-22T17:56:25.260Z,48.50
2018-04-22T17:58:51.969Z,48.20
2018-04-22T18:01:18.696Z,48.90
2018-04-22T18:03:45.401Z,49.10
2018-04-22T18:06:12.106Z,50.10
2018-04-22T18:08:39.564Z,51.20
2018-04-22T18:11:07.048Z,52.40
2018-04-22T18:13:33.807Z,52.40
2018-04-22T18:16:00.570Z,54.00
2018-04-22T18:18:27.312Z,56.40
2018-04-22T18:20:54.004Z,56.00
2018-04-22T18:23:20.694Z,56.90
2018-04-22T18:25:47.414Z,57.20
2018-04-22T18:28:14.094Z,57.50
2018-04-22T18:30:41.520Z,57.70
2018-04-22T18:33:08.247Z,57.70
2018-04-22T18:35:34.902Z,57.50
2018-04-22T18:38:01.575Z,57.80
2018-04-22T18:40:28.288Z,57.90
2018-04-22T18:42:55.023Z,58.00
2018-04-22T18:45:21.723Z,59.10
2018-04-22T18:47:48.395Z,58.40
2018-04-22T18:50:15.114Z,58.50
2018-04-22T18:52:41.788Z,58.50
2018-04-22T18:55:09.241Z,58.70
2018-04-22T18:57:35.983Z,58.70
2018-04-22T19:00:04.467Z,57.40
2018-04-22T19:02:31.938Z,57.80
2018-04-22T19:04:59.369Z,58.10
2018-04-22T19:07:26.824Z,59.40
2018-04-22T19:09:53.486Z,59.30
2018-04-22T19:12:20.925Z,61.40
2018-04-22T19:14:48.358Z,64.20
2018-04-22T19:17:15.104Z,63.60
2018-04-22T19:19:41.836Z,64.20
2018-04-22T19:22:08.556Z,64.90
2018-04-22T19:24:35.248Z,64.30
2018-04-22T19:27:02.680Z,65.10
2018-04-22T19:29:29.349Z,65.10
2018-04-22T19:31:56.926Z,64.60
2018-04-22T19:34:23.635Z,64.40
2018-04-22T19:36:50.332Z,65.20
2018-04-22T19:39:17.003Z,65.10
2018-04-22T19:41:44.643Z,65.20
2018-04-22T19:44:11.327Z,65.30
2018-04-22T19:46:38.017Z,65.80
2018-04-22T19:49:04.713Z,65.90
2018-04-22T19:51:31.624Z,66.00
2018-04-22T19:53:58.506Z,66.10
2018-04-22T19:56:25.266Z,66.30
2018-04-22T19:58:52.046Z,66.90
2018-04-22T20:01:19.566Z,67.80
2018-04-22T20:03:46.309Z,67.80
2018-04-22T20:06:13.057Z,67.90
2018-04-22T20:08:39.747Z,68.20
2018-04-22T20:11:06.482Z,68.70
2018-04-22T20:13:33.179Z,69.10
2018-04-22T20:15:59.900Z,69.40
2018-04-22T20:18:26.603Z,69.90
2018-04-22T20:20:53.283Z,68.70
2018-04-22T20:23:20.057Z,69.20
2018-04-22T20:25:47.521Z,70.20
2018-04-22T20:28:14.956Z,70.30
2018-04-22T20:30:42.328Z,71.00
2018-04-22T20:33:09.756Z,71.00
2018-04-22T20:35:36.444Z,70.90
2018-04-22T20:38:03.151Z,71.60
2018-04-22T20:40:29.840Z,72.50
2018-04-22T20:42:56.561Z,72.70
2018-04-22T20:45:23.248Z,72.50
2018-04-22T20:47:49.923Z,71.80
2018-04-22T20:50:17.374Z,72.30
2018-04-22T20:52:44.850Z,72.20
2018-04-22T20:55:11.528Z,72.20
2018-04-22T20:57:38.230Z,72.40
2018-04-22T21:00:04.928Z,72.70
2018-04-22T21:02:31.608Z,73.40
2018-04-22T21:04:58.301Z,73.70
2018-04-22T21:07:25.015Z,73.80
2018-04-22T21:09:52.668Z,73.50
2018-04-22T21:12:19.460Z,74.10
2018-04-22T21:14:46.995Z,73.80
2018-04-22T21:17:13.696Z,73.80
2018-04-22T21:19:41.138Z,74.90
2018-04-22T21:22:07.811Z,74.90
2018-04-22T21:24:34.511Z,74.20
2018-04-22T21:27:01.199Z,73.40
2018-04-22T21:29:27.919Z,73.60
2018-04-22T21:31:54.588Z,74.00
2018-04-22T21:34:21.252Z,74.70
2018-04-22T21:36:47.918Z,75.60
2018-04-22T21:39:14.584Z,75.90
2018-04-22T21:41:41.291Z,75.90
2018-04-22T21:44:07.992Z,75.60
2018-04-22T21:46:35.472Z,76.10
2018-04-22T21:49:02.185Z,76.10
2018-04-22T21:51:28.957Z,75.80
2018-04-22T21:53:55.645Z,76.00
2018-04-22T21:56:22.316Z,76.00
2018-04-22T21:58:49.821Z,78.10
2018-04-22T22:01:16.556Z,77.40
2018-04-22T22:03:43.239Z,78.10
2018-04-22T22:06:09.976Z,78.40
2018-04-22T22:08:36.656Z,78.70
2018-04-22T22:11:03.386Z,78.80
2018-04-22T22:13:30.071Z,79.00
2018-04-22T22:15:56.763Z,79.80
2018-04-22T22:18:23.424Z,80.20
2018-04-22T22:20:50.123Z,80.40
2018-04-22T22:23:17.579Z,80.50
2018-04-22T22:25:45.017Z,80.50
2018-04-22T22:28:11.686Z,80.50
2018-04-22T22:30:38.358Z,81.10
2018-04-22T22:33:05.046Z,80.60
2018-04-22T22:35:32.466Z,81.10
2018-04-22T22:37:59.149Z,81.10
2018-04-22T22:40:26.584Z,81.00
2018-04-22T22:42:53.334Z,80.90
2018-04-22T22:45:20.781Z,81.80
2018-04-22T22:47:47.463Z,81.80
2018-04-22T22:50:14.156Z,82.00
2018-04-22T22:52:40.856Z,82.00
2018-04-22T22:55:07.543Z,82.10
2018-04-22T22:57:34.283Z,82.20
2018-04-22T23:00:01.766Z,82.70
2018-04-22T23:02:28.486Z,82.70
2018-04-22T23:04:55.923Z,83.20
2018-04-22T23:07:22.603Z,83.20
2018-04-22T23:09:49.306Z,83.90
2018-04-22T23:12:15.971Z,84.30
2018-04-22T23:14:42.651Z,83.80
2018-04-22T23:17:09.346Z,84.50
2018-04-22T23:19:36.036Z,84.90
2018-04-22T23:22:02.747Z,84.90
2018-04-22T23:24:29.406Z,85.00
2018-04-22T23:26:56.083Z,84.90
2018-04-22T23:29:23.512Z,85.00
2018-04-22T23:31:50.198Z,85.00
2018-04-22T23:34:16.878Z,85.60
2018-04-22T23:36:43.545Z,85.80
2018-04-22T23:39:10.230Z,85.90
2018-04-22T23:41:36.927Z,85.80
2018-04-22T23:44:03.635Z,86.10
2018-04-22T23:46:30.304Z,86.00
2018-04-22T23:48:57.738Z,86.90
2018-04-22T23:51:24.411Z,86.80
2018-04-22T23:53:51.088Z,86.60
2018-04-22T23:56:17.798Z,86.70
2018-04-22T23:58:44.478Z,86.60
